Time;durP1;ratioP1;P1;durP2;ratioP2;P2;SDS_P1;SDS_P2;PMS_P1;PMS_P2;Temp;Humidity;BMP_temperature;BMP_pressure;BME280_temperature;BME280_humidity;BME280_pressure;Samples;Min_cycle;Max_cycle;Signal;HPM_P1;HPM_P2
2023/03/22 00:02:15;;;;;;;8.80;6.10;;;;;;;3.80;85.82;95459.28;106560;1275;25466;-73
2023/03/22 00:04:43;;;;;;;10.60;7.10;;;;;;;3.82;86.65;95457.89;106622;1275;24388;-72
2023/03/22 00:07:11;;;;;;;13.80;8.50;;;;;;;3.83;86.67;95456.34;106600;1275;22517;-73
2023/03/22 00:09:39;;;;;;;12.90;8.30;;;;;;;3.86;86.77;95456.88;106608;1275;22638;-73
2023/03/22 00:12:07;;;;;;;10.40;7.70;;;;;;;3.90;86.80;95457.23;106658;1275;22655;-72
2023/03/22 00:14:36;;;;;;;8.40;6.30;;;;;;;3.94;87.17;95454.65;106623;1275;25390;-73
2023/03/22 00:17:04;;;;;;;7.40;4.60;;;;;;;3.96;87.72;95457.63;106617;1275;22514;-73
2023/03/22 00:19:32;;;;;;;7.00;4.70;;;;;;;3.96;88.30;95453.62;106586;1275;25466;-73
2023/03/22 00:22:04;;;;;;;9.20;6.30;;;;;;;3.97;87.60;95449.27;106610;1275;25515;-73
2023/03/22 00:24:32;;;;;;;14.50;8.70;;;;;;;3.97;87.82;95451.70;106613;1275;22643;-74
2023/03/22 00:27:00;;;;;;;15.90;11.30;;;;;;;3.95;88.06;95448.39;106573;1275;22543;-74
2023/03/22 00:29:29;;;;;;;10.90;8.20;;;;;;;3.96;88.05;95450.30;106599;1275;24671;-73
2023/03/22 00:31:57;;;;;;;11.60;8.30;;;;;;;4.02;88.13;95442.84;106606;1275;25473;-73
2023/03/22 00:34:30;;;;;;;10.10;7.40;;;;;;;4.11;88.83;95442.72;106600;1265;24399;-73
2023/03/22 00:36:58;;;;;;;5.90;5.20;;;;;;;4.17;88.71;95435.77;106652;1275;22557;-74
2023/03/22 00:39:27;;;;;;;6.40;4.60;;;;;;;4.25;88.45;95434.40;106636;1275;25491;-74
2023/03/22 00:41:55;;;;;;;9.20;6.30;;;;;;;4.35;88.67;95436.70;106634;1275;22637;-74
2023/03/22 00:44:23;;;;;;;8.80;5.50;;;;;;;4.45;88.63;95433.41;106570;1275;24193;-74
2023/03/22 00:46:51;;;;;;;6.70;4.90;;;;;;;4.48;87.86;95437.26;106583;1275;23717;-73
2023/03/22 00:49:20;;;;;;;10.20;6.00;;;;;;;4.45;87.27;95434.63;106561;1275;24180;-74
2023/03/22 00:51:49;;;;;;;16.30;10.30;;;;;;;4.43;87.58;95429.40;106586;1275;25336;-74
2023/03/22 00:54:17;;;;;;;16.90;10.50;;;;;;;4.41;87.99;95430.10;106587;1275;22522;-74
2023/03/22 00:56:46;;;;;;;17.00;10.40;;;;;;;4.40;88.52;95427.48;106689;1275;22643;-74
2023/03/22 00:59:16;;;;;;;13.80;8.60;;;;;;;4.50;88.86;95427.67;106646;1275;22530;-74
2023/03/22 01:01:44;;;;;;;9.80;6.70;;;;;;;4.67;88.92;95426.85;106587;1275;22532;-74
2023/03/22 01:04:16;;;;;;;11.10;6.20;;;;;;;4.82;88.37;95425.63;106596;1275;22631;-74
2023/03/22 01:06:46;;;;;;;7.60;5.40;;;;;;;4.90;88.01;95421.11;106606;1275;25288;-74
2023/03/22 01:09:14;;;;;;;4.80;4.20;;;;;;;4.91;87.30;95421.81;106644;1275;23726;-74
2023/03/22 01:11:44;;;;;;;8.10;4.40;;;;;;;4.90;87.06;95420.92;106688;1275;24207;-74
2023/03/22 01:14:12;;;;;;;5.30;4.40;;;;;;;4.90;87.39;95423.20;106671;1275;24679;-74
2023/03/22 01:16:41;;;;;;;6.20;4.20;;;;;;;4.94;87.38;95423.39;106580;1275;22540;-74
2023/03/22 01:19:09;;;;;;;6.60;4.60;;;;;;;4.94;87.06;95425.30;106605;1275;25601;-74
2023/03/22 01:21:38;;;;;;;8.40;4.70;;;;;;;4.93;87.00;95419.89;106636;1275;22525;-74
2023/03/22 01:24:07;;;;;;;7.50;4.40;;;;;;;4.92;87.29;95415.02;106578;1275;24376;-74
2023/03/22 01:26:36;;;;;;;7.90;4.30;;;;;;;5.00;87.47;95416.75;106662;1275;22650;-74
2023/03/22 01:29:04;;;;;;;4.40;3.70;;;;;;;5.00;86.82;95415.89;106656;1275;22520;-74
2023/03/22 01:31:33;;;;;;;7.40;4.90;;;;;;;4.92;86.39;95412.05;106626;1275;22507;-74
2023/03/22 01:34:02;;;;;;;4.90;4.30;;;;;;;4.87;86.42;95412.23;106636;1275;22520;-74
2023/03/22 01:36:31;;;;;;;8.30;4.90;;;;;;;4.87;86.99;95410.99;106684;1275;22642;-74
2023/03/22 01:38:59;;;;;;;10.60;7.50;;;;;;;4.86;87.14;95407.86;106612;1275;23916;-74
2023/03/22 01:41:28;;;;;;;20.80;12.00;;;;;;;4.84;87.11;95410.64;106573;1275;24278;-74
2023/03/22 01:44:12;;;;;;;15.60;9.90;;;;;;;4.82;87.04;95409.27;106673;1275;24227;-74
2023/03/22 01:46:41;;;;;;;;;;;;;;;4.79;86.92;95409.27;106631;1275;22503;-74
2023/03/22 01:49:22;;;;;;;13.80;9.50;;;;;;;4.73;86.92;95409.77;106642;1275;25383;-74
2023/03/22 01:51:54;;;;;;;14.70;10.20;;;;;;;4.70;87.05;95412.55;106568;1275;25335;-75
2023/03/22 01:54:51;;;;;;;16.00;9.80;;;;;;;4.68;87.23;95412.39;106569;1275;22520;-74
2023/03/22 01:57:40;;;;;;;12.10;7.40;;;;;;;4.62;87.62;95414.30;106597;1275;22685;-74
2023/03/22 02:00:14;;;;;;;10.90;5.20;;;;;;;4.56;87.02;95414.97;106678;1264;25367;-74
2023/03/22 02:03:03;;;;;;;7.00;4.60;;;;;;;4.54;86.95;95416.88;106620;1275;25466;-74
2023/03/22 02:05:36;;;;;;;8.60;3.80;;;;;;;4.55;86.95;95413.75;106594;1275;24467;-73
2023/03/22 02:08:08;;;;;;;9.30;6.20;;;;;;;4.51;87.21;95419.67;106641;1275;22531;-74
2023/03/22 02:10:51;;;;;;;7.60;5.30;;;;;;;4.48;87.17;95417.58;106577;1275;25472;-74
2023/03/22 02:13:41;;;;;;;6.20;4.60;;;;;;;4.47;87.33;95416.70;106665;1275;22632;-74
2023/03/22 02:16:42;;;;;;;6.70;4.80;;;;;;;4.52;87.67;95422.63;106628;1275;25693;-74
2023/03/22 02:19:28;;;;;;;5.10;4.40;;;;;;;4.55;88.19;95419.51;106659;1275;22537;-74
2023/03/22 02:22:42;;;;;;;9.80;5.00;;;;;;;4.56;87.73;95424.20;106604;1275;25324;-74
2023/03/22 02:25:34;;;;;;;5.40;4.50;;;;;;;4.62;88.08;95419.86;106590;1275;24479;-74
2023/03/22 02:28:05;;;;;;;4.90;3.90;;;;;;;4.72;88.27;95422.13;106605;1275;24368;-74
2023/03/22 02:31:11;;;;;;;14.20;8.40;;;;;;;4.74;88.18;95420.57;106577;1267;23162;-74
2023/03/22 02:34:14;;;;;;;8.50;6.60;;;;;;;4.82;88.52;95420.92;106533;1275;25402;-74
2023/03/22 02:36:52;;;;;;;5.20;4.50;;;;;;;4.84;87.94;95419.55;106520;1275;22545;-74
2023/03/22 02:40:07;;;;;;;7.50;4.60;;;;;;;4.84;87.81;95420.92;106626;1275;25678;-74
2023/03/22 02:42:38;;;;;;;5.50;4.10;;;;;;;4.86;88.07;95419.71;106181;1280;22698;-74
2023/03/22 02:45:07;;;;;;;4.20;3.60;;;;;;;4.91;88.11;95420.77;106191;1280;22690;-74
2023/03/22 02:47:43;;;;;;;10.40;6.20;;;;;;;4.87;87.77;95419.01;106445;1275;22648;-74
2023/03/22 02:50:27;;;;;;;5.60;4.40;;;;;;;4.79;87.42;95423.71;106642;1275;24685;-74
2023/03/22 02:53:08;;;;;;;4.70;4.10;;;;;;;4.75;87.81;95426.15;106602;1275;22524;-74
2023/03/22 02:55:39;;;;;;;6.10;4.00;;;;;;;4.76;87.79;95428.24;106567;1275;23261;-74
2023/03/22 02:58:39;;;;;;;9.20;4.70;;;;;;;4.73;87.59;95430.48;106625;1275;25288;-74
2023/03/22 03:01:34;;;;;;;7.20;4.80;;;;;;;4.69;87.51;95431.71;106575;1275;22511;-74
2023/03/22 03:04:08;;;;;;;7.00;4.90;;;;;;;4.70;87.88;95433.11;106573;1275;23918;-73
2023/03/22 03:06:45;;;;;;;9.60;4.50;;;;;;;4.61;87.15;95431.02;106589;1265;22539;-73
2023/03/22 03:09:19;;;;;;;8.60;5.10;;;;;;;4.51;86.95;95432.90;106646;1275;22737;-73
2023/03/22 03:11:50;;;;;;;6.40;4.70;;;;;;;4.42;86.86;95435.50;106661;1275;22522;-73
2023/03/22 03:14:27;;;;;;;8.80;5.40;;;;;;;4.32;86.97;95428.86;106636;1275;22517;-72
2023/03/22 03:17:16;;;;;;;5.10;3.70;;;;;;;4.23;86.79;95431.45;106357;1275;23884;-73
2023/03/22 03:20:15;;;;;;;7.50;4.80;;;;;;;4.05;86.14;95427.72;106615;1275;22520;-73
2023/03/22 03:23:30;;;;;;;5.90;5.00;;;;;;;3.97;86.74;95433.77;106670;1275;22670;-73
2023/03/22 03:26:48;;;;;;;7.00;4.80;;;;;;;3.87;86.65;95437.02;106653;1275;24253;-73
2023/03/22 03:29:35;;;;;;;6.40;5.10;;;;;;;3.75;86.69;95434.37;106632;1275;22516;-73
2023/03/22 03:32:18;;;;;;;5.70;5.00;;;;;;;3.69;86.79;95433.64;106580;1275;24354;-73
2023/03/22 03:34:54;;;;;;;6.40;5.40;;;;;;;3.65;86.84;95440.06;106640;1275;24362;-73
2023/03/22 03:37:29;;;;;;;8.00;5.20;;;;;;;3.61;86.77;95441.78;106576;1275;23117;-73
2023/03/22 03:40:09;;;;;;;8.50;5.40;;;;;;;3.57;86.70;95441.74;106625;1275;25220;-72
2023/03/22 03:42:45;;;;;;;9.50;5.30;;;;;;;3.48;86.33;95443.61;106603;1275;25391;-73
2023/03/22 03:45:14;;;;;;;6.60;5.10;;;;;;;3.40;86.29;95440.95;106623;1275;23003;-72
2023/03/22 03:47:54;;;;;;;9.10;6.30;;;;;;;3.33;86.20;95445.25;106596;1275;24234;-72
2023/03/22 03:50:24;;;;;;;11.10;6.80;;;;;;;3.28;86.39;95446.27;106632;1275;24256;-72
2023/03/22 03:52:54;;;;;;;11.90;8.10;;;;;;;3.27;86.50;95447.29;106603;1275;25504;-72
2023/03/22 03:55:24;;;;;;;12.90;8.90;;;;;;;3.32;87.11;95447.33;106622;1275;22531;-72
2023/03/22 03:57:53;;;;;;;10.60;7.50;;;;;;;3.34;87.28;95444.73;106611;1275;25258;-73
2023/03/22 04:00:21;;;;;;;10.20;7.90;;;;;;;3.34;87.26;95446.65;106666;1275;22626;-72
2023/03/22 04:03:10;;;;;;;11.10;8.30;;;;;;;3.42;87.77;95447.92;106526;1275;22520;-72
2023/03/22 04:05:51;;;;;;;10.60;8.20;;;;;;;3.52;87.91;95447.98;106644;1275;22524;-72
2023/03/22 04:08:19;;;;;;;13.10;8.30;;;;;;;3.57;87.66;95449.92;106550;1275;25458;-71
2023/03/22 04:10:50;;;;;;;13.80;7.40;;;;;;;3.58;87.55;95449.42;106614;1275;22840;-72
2023/03/22 04:13:20;;;;;;;13.00;8.10;;;;;;;3.57;87.55;95449.40;106608;1275;22578;-72
2023/03/22 04:15:56;;;;;;;15.00;8.20;;;;;;;3.56;87.46;95458.09;106644;1275;22627;-72
2023/03/22 04:18:28;;;;;;;10.10;7.10;;;;;;;3.59;87.77;95451.15;106586;1275;22640;-72
2023/03/22 04:20:57;;;;;;;8.10;6.60;;;;;;;3.62;87.59;95452.73;106582;1275;25600;-72
2023/03/22 04:23:26;;;;;;;8.60;6.90;;;;;;;3.62;87.55;95451.52;106653;1275;24260;-71
2023/03/22 04:25:58;;;;;;;14.40;8.20;;;;;;;3.64;87.89;95454.48;106563;1275;22515;-73
2023/03/22 04:28:35;;;;;;;9.50;7.20;;;;;;;3.65;87.90;95453.27;106584;1275;22598;-67
2023/03/22 04:31:03;;;;;;;69.40;36.40;;;;;;;3.62;88.02;95453.61;106572;1275;25239;-69
2023/03/22 04:33:53;;;;;;;30.30;17.90;;;;;;;3.64;88.20;95455.36;106584;1275;22524;-68
2023/03/22 04:36:49;;;;;;;11.40;7.70;;;;;;;3.68;88.38;95455.55;106538;1266;25290;-68
2023/03/22 04:39:30;;;;;;;10.80;6.30;;;;;;;3.66;87.58;95457.82;106619;1275;22525;-68
2023/03/22 04:42:28;;;;;;;8.50;6.90;;;;;;;3.59;87.36;95454.80;106547;1275;24278;-68
2023/03/22 04:45:05;;;;;;;8.60;7.40;;;;;;;3.61;87.73;95456.04;106573;1275;25220;-68
2023/03/22 04:47:34;;;;;;;8.10;6.40;;;;;;;3.58;87.24;95453.93;106615;1275;22527;-68
2023/03/22 04:50:06;;;;;;;14.00;6.50;;;;;;;3.48;86.59;95455.95;106628;1275;22625;-68
2023/03/22 04:52:41;;;;;;;9.60;7.30;;;;;;;3.39;87.06;95461.45;106570;1275;24046;-68
2023/03/22 04:55:09;;;;;;;8.00;6.30;;;;;;;3.38;87.59;95461.27;106551;1264;22780;-68
2023/03/22 04:57:37;;;;;;;9.40;6.70;;;;;;;3.38;87.49;95457.63;106624;1275;25319;-68
2023/03/22 05:00:07;;;;;;;9.80;6.80;;;;;;;3.36;87.48;95465.79;106611;1275;22590;-68
2023/03/22 05:02:38;;;;;;;10.10;7.50;;;;;;;3.38;87.72;95471.54;106601;1275;22519;-68
2023/03/22 05:05:10;;;;;;;13.90;6.60;;;;;;;3.35;87.09;95472.56;106691;1275;22521;-68
2023/03/22 05:07:40;;;;;;;9.50;7.60;;;;;;;3.29;87.00;95473.05;106715;1275;25465;-68
2023/03/22 05:10:09;;;;;;;7.70;6.10;;;;;;;3.25;86.87;95476.31;106610;1275;25387;-68
2023/03/22 05:12:38;;;;;;;9.80;6.40;;;;;;;3.13;86.39;95479.69;106613;1275;22517;-68
2023/03/22 05:15:23;;;;;;;12.40;7.40;;;;;;;2.99;86.62;95480.79;106763;1275;24268;-68
2023/03/22 05:17:52;;;;;;;10.80;6.70;;;;;;;2.92;86.94;95479.86;106644;1275;24297;-68
2023/03/22 05:20:20;;;;;;;30.40;13.90;;;;;;;2.86;87.09;95479.98;106655;1275;22641;-68
2023/03/22 05:22:56;;;;;;;16.40;10.00;;;;;;;2.88;87.31;95483.98;106883;1275;23012;-68
2023/03/22 05:25:25;;;;;;;10.90;7.10;;;;;;;2.95;87.56;95486.65;106723;1263;25477;-68
2023/03/22 05:27:54;;;;;;;11.30;8.00;;;;;;;3.01;87.56;95490.02;106553;1275;22547;-68
2023/03/22 05:30:43;;;;;;;12.20;7.90;;;;;;;3.04;87.72;95494.04;106612;1275;22533;-68
2023/03/22 05:33:21;;;;;;;12.20;8.30;;;;;;;3.02;87.80;95490.02;106612;1275;24430;-68
2023/03/22 05:35:52;;;;;;;14.30;9.00;;;;;;;3.06;88.32;95492.48;106565;1275;23668;-68
2023/03/22 05:38:21;;;;;;;11.60;8.00;;;;;;;3.10;89.09;95496.70;106610;1263;24395;-69
2023/03/22 05:40:51;;;;;;;12.30;8.40;;;;;;;3.09;89.13;95495.29;106632;1275;24420;-69
2023/03/22 05:43:20;;;;;;;16.90;10.40;;;;;;;3.15;89.61;95497.77;106566;1273;25278;-68
2023/03/22 05:45:49;;;;;;;30.80;19.20;;;;;;;3.32;89.94;95497.40;106642;1275;22525;-69
2023/03/22 05:48:32;;;;;;;56.30;31.20;;;;;;;3.55;90.96;95494.78;106646;1275;22638;-69
2023/03/22 05:51:02;;;;;;;38.70;23.20;;;;;;;3.74;91.31;95498.04;106662;1275;22530;-68
2023/03/22 05:53:31;;;;;;;32.70;18.30;;;;;;;3.89;90.94;95493.08;106626;1275;25269;-68
2023/03/22 05:56:16;;;;;;;22.70;16.90;;;;;;;4.10;90.84;95493.18;106579;1275;22650;-71
2023/03/22 05:58:45;;;;;;;22.90;16.70;;;;;;;4.29;90.80;95495.53;106678;1275;24226;-69
2023/03/22 06:01:15;;;;;;;21.10;16.40;;;;;;;4.43;90.21;95496.45;106784;1275;25194;-70
2023/03/22 06:03:48;;;;;;;26.10;15.10;;;;;;;4.53;89.95;95493.35;106857;1275;22522;-68
2023/03/22 06:06:26;;;;;;;18.40;14.30;;;;;;;4.66;89.86;95497.73;107556;1275;24236;-73
2023/03/22 06:09:15;;;;;;;18.80;13.30;;;;;;;4.84;89.45;95493.96;106589;1275;22517;-70
2023/03/22 06:11:48;;;;;;;;;;;;;;;4.98;89.12;95494.14;106555;1275;26470;-73
2023/03/22 06:14:17;;;;;;;20.10;13.60;;;;;;;5.05;88.56;95499.05;106575;1275;23902;-77
2023/03/22 06:16:59;;;;;;;17.50;11.90;;;;;;;5.12;88.16;95502.54;106600;1275;22935;-69
2023/03/22 06:19:28;;;;;;;19.60;13.00;;;;;;;5.24;88.34;95508.64;106649;1275;22735;-71
2023/03/22 06:21:56;;;;;;;24.60;16.40;;;;;;;5.43;88.81;95505.34;106588;1275;24053;-70
2023/03/22 06:24:25;;;;;;;16.70;12.90;;;;;;;5.61;88.64;95506.39;106757;1275;25220;-68
2023/03/22 06:26:54;;;;;;;21.00;14.00;;;;;;;5.75;87.97;95509.68;106605;1275;22530;-74
2023/03/22 06:29:23;;;;;;;19.50;14.70;;;;;;;5.89;88.11;95507.21;106603;1275;22569;-71
2023/03/22 06:31:53;;;;;;;21.10;14.30;;;;;;;6.03;87.65;95508.44;106525;1275;22546;-74
2023/03/22 06:34:21;;;;;;;18.90;13.00;;;;;;;6.14;86.89;95504.91;106573;1275;25262;-70
2023/03/22 06:36:49;;;;;;;17.80;13.00;;;;;;;6.21;86.46;95508.39;106455;1269;25527;-72
2023/03/22 06:39:28;;;;;;;25.30;19.10;;;;;;;6.29;86.52;95510.29;106395;1273;22635;-73
2023/03/22 06:41:56;;;;;;;38.80;30.40;;;;;;;6.37;85.88;95513.74;106702;1275;22531;-73
2023/03/22 06:44:25;;;;;;;21.00;15.70;;;;;;;6.43;85.45;95514.25;106552;1273;22627;-79
2023/03/22 06:47:04;;;;;;;17.40;13.90;;;;;;;6.52;85.66;95513.16;106459;1275;22578;-67
2023/03/22 06:49:58;;;;;;;21.50;14.20;;;;;;;6.63;85.61;95511.73;106626;1275;24228;-66
2023/03/22 06:52:37;;;;;;;19.30;13.90;;;;;;;6.74;85.20;95509.56;106998;1275;25319;-73
2023/03/22 06:55:06;;;;;;;27.90;19.10;;;;;;;6.84;85.11;95511.27;106442;1275;22573;-72
2023/03/22 06:57:34;;;;;;;17.90;13.50;;;;;;;6.94;84.80;95510.86;106581;1275;25312;-69
2023/03/22 07:00:04;;;;;;;16.80;13.10;;;;;;;7.05;84.27;95513.06;106599;1275;22639;-68
2023/03/22 07:02:32;;;;;;;23.70;18.30;;;;;;;7.15;84.00;95513.70;106597;1275;25210;-69
2023/03/22 07:05:13;;;;;;;18.10;14.00;;;;;;;7.27;83.78;95513.10;106680;1275;24379;-72
2023/03/22 07:07:41;;;;;;;14.90;9.90;;;;;;;7.39;83.61;95512.30;106499;1275;25262;-69
2023/03/22 07:10:10;;;;;;;18.30;12.60;;;;;;;7.50;82.89;95510.29;106540;1264;25919;-73
2023/03/22 07:12:38;;;;;;;12.50;9.40;;;;;;;7.62;82.22;95508.98;106529;1272;26647;-71
2023/03/22 07:15:10;;;;;;;13.80;9.90;;;;;;;7.75;82.28;95509.02;106424;1275;24339;-68
2023/03/22 07:17:52;;;;;;;13.70;10.70;;;;;;;7.89;82.09;95509.77;106458;1270;24253;-70
2023/03/22 07:20:20;;;;;;;13.70;10.40;;;;;;;8.03;81.93;95508.41;106513;1269;22788;-70
2023/03/22 07:22:50;;;;;;;16.60;13.00;;;;;;;8.17;82.13;95508.80;106614;1271;25297;-68
2023/03/22 07:25:19;;;;;;;15.00;12.00;;;;;;;8.33;81.85;95513.52;106621;1275;24490;-68
2023/03/22 07:27:49;;;;;;;17.20;11.20;;;;;;;8.48;81.73;95512.86;106632;1275;22523;-74
2023/03/22 07:30:18;;;;;;;12.80;9.50;;;;;;;8.62;81.37;95513.75;106574;1275;24201;-68
2023/03/22 07:32:47;;;;;;;13.70;10.20;;;;;;;8.74;79.17;95511.31;106873;1275;22864;-72
2023/03/22 07:35:15;;;;;;;14.80;11.60;;;;;;;8.88;78.52;95514.99;106605;1275;22595;-70
2023/03/22 07:37:44;;;;;;;12.10;9.50;;;;;;;9.02;78.13;95513.05;106779;1275;24481;-73
2023/03/22 07:40:22;;;;;;;12.50;9.70;;;;;;;9.19;78.09;95511.77;106579;1275;22530;-70
2023/03/22 07:42:52;;;;;;;13.00;10.30;;;;;;;9.34;77.72;95509.25;106595;1275;24231;-69
2023/03/22 07:45:58;;;;;;;11.90;9.30;;;;;;;9.56;78.20;95507.86;106503;1275;24530;-75
2023/03/22 07:48:44;;;;;;;13.00;9.10;;;;;;;9.79;78.17;95507.48;106636;1275;25264;-70
2023/03/22 07:51:50;;;;;;;11.40;9.50;;;;;;;10.04;77.57;95508.11;106606;1275;22650;-72
2023/03/22 07:54:19;;;;;;;13.40;11.50;;;;;;;10.19;76.03;95507.29;106689;1275;22520;-71
2023/03/22 07:57:01;;;;;;;19.70;15.50;;;;;;;10.39;75.90;95511.54;106683;1254;22774;-70
2023/03/22 07:59:30;;;;;;;12.90;9.00;;;;;;;10.56;73.89;95511.04;106858;1275;22694;-70
2023/03/22 08:01:59;;;;;;;11.20;8.90;;;;;;;10.72;73.34;95509.98;106968;1275;22673;-70
2023/03/22 08:04:31;;;;;;;12.10;10.00;;;;;;;10.88;72.48;95511.97;106582;1273;22546;-70
2023/03/22 08:07:12;;;;;;;9.60;8.50;;;;;;;11.02;71.47;95510.05;106437;1275;25215;-70
2023/03/22 08:09:41;;;;;;;14.10;10.40;;;;;;;11.16;72.04;95514.52;106436;1276;24253;-69
2023/03/22 08:12:11;;;;;;;12.00;10.20;;;;;;;11.26;68.61;95510.41;106521;1276;24386;-70
2023/03/22 08:14:39;;;;;;;13.40;9.50;;;;;;;11.40;70.62;95508.34;106609;1276;22528;-70
2023/03/22 08:17:13;;;;;;;11.20;9.00;;;;;;;11.53;70.21;95506.98;106599;1276;24241;-70
2023/03/22 08:19:42;;;;;;;12.20;9.30;;;;;;;11.60;69.10;95508.40;106533;1276;24216;-69
2023/03/22 08:22:12;;;;;;;10.30;8.70;;;;;;;11.70;69.50;95506.38;106465;1276;24239;-72
2023/03/22 08:25:16;;;;;;;12.00;9.60;;;;;;;11.83;67.01;95505.91;106145;1271;22530;-69
2023/03/22 08:27:45;;;;;;;13.00;8.80;;;;;;;11.95;68.67;95506.35;106722;1276;22522;-75
2023/03/22 08:30:14;;;;;;;11.10;9.20;;;;;;;12.06;67.52;95506.05;106566;1276;22803;-71
2023/03/22 08:32:43;;;;;;;13.20;8.60;;;;;;;12.12;66.71;95507.31;106582;1266;22667;-70
2023/03/22 08:35:11;;;;;;;39.40;28.30;;;;;;;12.20;66.49;95505.35;106444;1270;22557;-68
2023/03/22 08:37:40;;;;;;;86.90;58.60;;;;;;;12.29;65.69;95505.97;106364;1274;22507;-72
2023/03/22 08:40:10;;;;;;;53.40;36.80;;;;;;;12.45;66.70;95503.98;106946;1275;24291;-71
2023/03/22 08:42:51;;;;;;;16.50;12.80;;;;;;;12.61;66.43;95504.77;106475;1259;22708;-71
2023/03/22 08:45:20;;;;;;;11.50;9.20;;;;;;;12.71;63.78;95504.13;106609;1275;25483;-75
2023/03/22 08:47:58;;;;;;;15.70;13.10;;;;;;;12.85;62.98;95506.58;106751;1275;22563;-74
2023/03/22 08:50:27;;;;;;;14.20;9.80;;;;;;;12.93;61.09;95503.85;106789;1275;22538;-73
2023/03/22 08:53:04;;;;;;;10.80;9.70;;;;;;;12.96;59.63;95504.30;106729;1275;24370;-79
2023/03/22 08:55:36;;;;;;;11.40;7.90;;;;;;;13.04;60.29;95504.94;106865;1275;24363;-70
2023/03/22 08:58:12;;;;;;;9.80;7.50;;;;;;;13.12;60.41;95500.63;106563;1275;22800;-75
2023/03/22 09:00:54;;;;;;;11.40;9.00;;;;;;;13.26;61.42;95501.66;106570;1275;22522;-79
2023/03/22 09:03:43;;;;;;;13.50;11.30;;;;;;;13.42;60.51;95503.98;106471;1275;23013;-73
2023/03/22 09:06:13;;;;;;;11.90;9.20;;;;;;;13.57;61.15;95505.64;106672;1275;22525;-77
2023/03/22 09:08:42;;;;;;;12.50;9.40;;;;;;;13.64;59.81;95503.10;106919;1275;24319;-76
2023/03/22 09:11:13;;;;;;;13.90;10.80;;;;;;;13.72;60.24;95501.45;106712;1275;24263;-73
2023/03/22 09:13:47;;;;;;;11.90;8.30;;;;;;;13.79;59.51;95498.04;106484;1275;22524;-71
2023/03/22 09:16:16;;;;;;;10.70;8.40;;;;;;;13.95;59.36;95498.91;106594;1275;22533;-76
2023/03/22 09:18:45;;;;;;;10.50;8.90;;;;;;;14.06;59.66;95503.34;106563;1275;22598;-76
2023/03/22 09:21:18;;;;;;;18.10;13.60;;;;;;;14.02;59.36;95499.38;106602;1275;22859;-76
2023/03/22 09:23:50;;;;;;;34.30;30.90;;;;;;;14.01;56.77;95499.08;106606;1275;24248;-78
2023/03/22 09:26:23;;;;;;;11.90;10.00;;;;;;;13.87;56.51;95498.84;106901;1275;23021;-74
2023/03/22 09:28:52;;;;;;;10.10;9.00;;;;;;;13.80;57.14;95494.48;106895;1275;24390;-75
2023/03/22 09:31:20;;;;;;;10.80;7.80;;;;;;;13.91;57.91;95492.00;106647;1275;24081;-74
2023/03/22 09:33:57;;;;;;;10.90;9.40;;;;;;;14.16;56.57;95492.38;106662;1275;24078;-74
2023/03/22 09:36:26;;;;;;;12.20;9.20;;;;;;;14.39;56.97;95490.88;106744;1275;22527;-75
2023/03/22 09:38:55;;;;;;;10.10;7.40;;;;;;;14.52;54.38;95486.73;106676;1275;22642;-74
2023/03/22 09:41:38;;;;;;;10.30;7.90;;;;;;;14.65;55.51;95488.05;106660;1275;22652;-73
2023/03/22 09:44:36;;;;;;;14.50;11.50;;;;;;;14.94;55.28;95486.61;106539;1275;24256;-74
2023/03/22 09:47:14;;;;;;;15.80;11.60;;;;;;;15.18;54.22;95479.86;106551;1275;24202;-76
2023/03/22 09:49:47;;;;;;;11.70;9.90;;;;;;;15.28;50.68;95472.58;106695;1275;22507;-70
2023/03/22 09:52:21;;;;;;;7.70;6.60;;;;;;;15.49;52.23;95468.75;106751;1275;25390;-67
2023/03/22 09:54:49;;;;;;;12.20;7.60;;;;;;;15.81;51.99;95471.54;106686;1275;24216;-71
2023/03/22 09:57:28;;;;;;;9.70;7.00;;;;;;;16.11;51.40;95471.38;106873;1275;24360;-71
2023/03/22 10:00:11;;;;;;;8.30;7.10;;;;;;;16.35;48.74;95470.55;106928;1275;24199;-68
2023/03/22 10:02:39;;;;;;;11.20;8.90;;;;;;;16.45;46.50;95469.77;106756;1275;22523;-70
2023/03/22 10:05:30;;;;;;;8.40;5.90;;;;;;;16.49;47.99;95470.44;106978;1275;22766;-73
2023/03/22 10:08:13;;;;;;;10.20;6.50;;;;;;;16.55;45.34;95471.98;106649;1275;22609;-72
2023/03/22 10:10:42;;;;;;;;;;;;;;;16.55;45.74;95469.33;106746;1275;24199;-70
2023/03/22 10:13:16;;;;;;;16.50;14.80;;;;;;;16.72;44.83;95465.54;106694;1275;22574;-71
2023/03/22 10:15:51;;;;;;;7.70;6.30;;;;;;;16.77;44.11;95464.06;106652;1275;23903;-71
2023/03/22 10:18:23;;;;;;;7.30;5.90;;;;;;;16.71;44.49;95467.02;106639;1275;22560;-70
2023/03/22 10:21:02;;;;;;;7.20;6.40;;;;;;;16.44;44.64;95465.70;106113;1275;643880;-71
2023/03/22 10:24:08;;;;;;;8.00;6.50;;;;;;;16.36;45.09;95466.20;106750;1262;22745;-67
2023/03/22 10:26:44;;;;;;;7.50;6.60;;;;;;;16.15;44.08;95469.44;106733;1275;22618;-70
2023/03/22 10:29:24;;;;;;;8.90;6.80;;;;;;;15.66;43.23;95468.05;106673;1263;22997;-71
2023/03/22 10:31:53;;;;;;;7.20;5.70;;;;;;;15.28;44.84;95468.47;106533;1275;22525;-70
2023/03/22 10:34:30;;;;;;;6.70;5.60;;;;;;;15.14;46.17;95470.63;106645;1275;22523;-71
2023/03/22 10:37:03;;;;;;;9.70;5.60;;;;;;;15.01;46.57;95472.19;106630;1275;22642;-69
2023/03/22 10:39:37;;;;;;;6.90;5.00;;;;;;;14.85;46.21;95469.61;106574;1275;22531;-70
2023/03/22 10:42:14;;;;;;;6.60;5.70;;;;;;;14.63;46.52;95468.30;106740;1275;22590;-70
2023/03/22 10:44:59;;;;;;;5.90;4.90;;;;;;;14.47;47.23;95467.08;106767;1275;24830;-71
2023/03/22 10:47:43;;;;;;;7.70;5.70;;;;;;;14.31;47.57;95465.33;106669;1275;23881;-70
2023/03/22 10:50:27;;;;;;;8.00;6.80;;;;;;;14.15;47.24;95467.66;106675;1275;22633;-69
2023/03/22 10:53:07;;;;;;;8.70;6.70;;;;;;;13.95;47.38;95467.46;106613;1275;22520;-70
2023/03/22 10:55:40;;;;;;;6.50;5.70;;;;;;;13.87;48.35;95467.36;106700;1275;24206;-70
2023/03/22 10:58:15;;;;;;;8.10;5.60;;;;;;;13.84;48.74;95463.03;106634;1275;25298;-70
2023/03/22 11:00:51;;;;;;;8.00;6.10;;;;;;;13.80;48.88;95459.29;106551;1275;22531;-70
2023/03/22 11:03:33;;;;;;;8.50;6.00;;;;;;;13.79;49.12;95458.25;106970;1275;22521;-70
2023/03/22 11:06:09;;;;;;;10.90;6.90;;;;;;;13.78;48.95;95458.64;106768;1275;22522;-70
2023/03/22 11:08:49;;;;;;;9.20;6.50;;;;;;;13.77;49.45;95455.14;106810;1275;25324;-69
2023/03/22 11:11:27;;;;;;;10.00;6.40;;;;;;;13.75;49.31;95454.16;106583;1275;25323;-70
2023/03/22 11:14:00;;;;;;;8.20;7.10;;;;;;;13.75;49.64;95451.67;106724;1275;22774;-70
2023/03/22 11:16:30;;;;;;;8.40;6.20;;;;;;;13.78;50.15;95449.63;106654;1275;23020;-70
2023/03/22 11:19:01;;;;;;;9.30;6.40;;;;;;;13.85;50.14;95452.23;106690;1275;22527;-70
2023/03/22 11:21:32;;;;;;;7.60;5.90;;;;;;;14.08;49.91;95448.80;106669;1275;24442;-71
2023/03/22 11:24:04;;;;;;;5.80;5.10;;;;;;;14.58;48.99;95439.59;106636;1275;22554;-69
2023/03/22 11:26:35;;;;;;;7.10;5.40;;;;;;;15.54;46.84;95425.65;106669;1275;22518;-71
2023/03/22 11:29:17;;;;;;;10.90;6.90;;;;;;;16.52;45.88;95419.71;106656;1275;22647;-71
2023/03/22 11:31:48;;;;;;;12.70;11.00;;;;;;;17.41;43.59;95413.31;106681;1275;22535;-70
2023/03/22 11:34:18;;;;;;;7.20;5.60;;;;;;;18.21;42.41;95412.04;106633;1275;22595;-71
2023/03/22 11:36:55;;;;;;;6.80;5.90;;;;;;;18.95;39.44;95405.27;106801;1275;24353;-69
2023/03/22 11:39:27;;;;;;;8.10;5.80;;;;;;;19.48;38.89;95401.08;106874;1275;25330;-69
2023/03/22 11:42:02;;;;;;;7.50;4.70;;;;;;;20.08;38.27;95401.62;106821;1275;23152;-69
2023/03/22 11:44:34;;;;;;;15.00;9.80;;;;;;;20.46;38.08;95399.85;106683;1275;24058;-70
2023/03/22 11:47:03;;;;;;;13.50;8.50;;;;;;;20.23;37.51;95400.67;106849;1275;22526;-70
2023/03/22 11:49:45;;;;;;;7.40;6.30;;;;;;;20.10;37.56;95398.27;106661;1275;24193;-70
2023/03/22 11:52:21;;;;;;;6.30;5.70;;;;;;;19.69;37.05;95401.70;106676;1275;22609;-70
2023/03/22 11:54:50;;;;;;;6.60;5.80;;;;;;;19.01;37.84;95404.23;106676;1275;22788;-69
2023/03/22 11:57:25;;;;;;;6.80;5.70;;;;;;;18.52;38.65;95404.71;106658;1275;22753;-69
2023/03/22 12:00:11;;;;;;;8.40;5.10;;;;;;;18.19;39.15;95405.36;106793;1275;22753;-71
2023/03/22 12:02:53;;;;;;;7.90;5.30;;;;;;;17.81;39.92;95406.19;106715;1275;22637;-70